createdAt,value
2023-02-22T00:00:43.223Z,12.27
2023-02-22T00:03:15.077Z,12.10
2023-02-22T00:05:47.044Z,12.00
2023-02-22T00:08:17.745Z,11.25
2023-02-22T00:10:44.821Z,13.00
2023-02-22T00:13:14.022Z,9.88
2023-02-22T00:15:41.528Z,12.23
2023-02-22T00:18:10.444Z,12.82
2023-02-22T00:20:38.906Z,13.23
2023-02-22T00:23:14.019Z,12.38
2023-02-22T00:25:40.584Z,12.93
2023-02-22T00:28:07.164Z,12.60
2023-02-22T00:30:34.431Z,12.43
2023-02-22T00:33:01.460Z,12.40
2023-02-22T00:35:30.204Z,13.00
2023-02-22T00:37:59.338Z,13.18
2023-02-22T00:40:30.563Z,11.35
2023-02-22T00:42:59.105Z,8.48
2023-02-22T00:45:27.417Z,10.32
2023-02-22T00:47:57.225Z,9.65
2023-02-22T00:50:25.499Z,12.23
2023-02-22T00:52:53.008Z,11.73
2023-02-22T00:55:22.612Z,10.18
2023-02-22T00:57:50.024Z,11.93
2023-02-22T01:00:25.736Z,11.40
2023-02-22T01:02:52.411Z,12.32
2023-02-22T01:05:23.158Z,11.10
2023-02-22T01:07:49.892Z,10.45
2023-02-22T01:10:20.473Z,11.02
2023-02-22T01:12:48.601Z,10.63
2023-02-22T01:15:16.356Z,10.65
2023-02-22T01:17:43.816Z,11.98
2023-02-22T01:20:14.210Z,11.27
2023-02-22T01:22:42.262Z,11.43
2023-02-22T01:25:10.910Z,10.73
2023-02-22T01:27:38.562Z,11.55
2023-02-22T01:30:08.627Z,10.48
2023-02-22T01:32:40.371Z,10.48
2023-02-22T01:35:10.076Z,11.35
2023-02-22T01:37:36.785Z,10.10
2023-02-22T01:40:07.283Z,11.38
2023-02-22T01:42:34.233Z,10.50
2023-02-22T01:45:34.360Z,10.00
2023-02-22T01:48:16.811Z,10.10
2023-02-22T01:50:55.708Z,8.63
2023-02-22T01:53:26.717Z,9.57
2023-02-22T01:55:56.178Z,9.52
2023-02-22T02:00:51.078Z,8.50
2023-02-22T02:03:27.734Z,8.52
2023-02-22T02:05:58.766Z,8.60
2023-02-22T02:08:36.215Z,8.75
2023-02-22T02:11:08.718Z,8.32
2023-02-22T02:13:36.465Z,7.88
2023-02-22T02:16:03.538Z,8.27
2023-02-22T02:18:30.177Z,7.45
2023-02-22T02:20:56.646Z,8.30
2023-02-22T02:24:04.889Z,8.02
2023-02-22T02:26:43.974Z,8.27
2023-02-22T02:29:42.409Z,7.65
2023-02-22T02:32:46.388Z,8.45
2023-02-22T02:35:33.190Z,7.80
2023-02-22T02:38:18.710Z,8.07
2023-02-22T02:41:10.762Z,7.72
2023-02-22T02:43:59.394Z,8.00
2023-02-22T02:46:40.178Z,8.07
2023-02-22T02:49:12.365Z,8.68
2023-02-22T02:51:44.232Z,8.85
2023-02-22T02:54:13.086Z,9.00
2023-02-22T02:56:40.707Z,8.77
2023-02-22T02:59:40.272Z,7.63
2023-02-22T03:02:25.467Z,8.52
2023-02-22T03:04:59.995Z,8.77
2023-02-22T03:07:38.839Z,8.43
2023-02-22T03:10:42.435Z,8.40
2023-02-22T03:13:33.457Z,7.95
2023-02-22T03:16:16.006Z,8.93
2023-02-22T03:18:54.922Z,9.15
2023-02-22T03:21:50.616Z,8.02
2023-02-22T03:24:17.059Z,8.30
2023-02-22T03:26:50.076Z,8.20
2023-02-22T03:29:21.421Z,8.48
2023-02-22T03:31:56.169Z,8.57
2023-02-22T03:34:26.922Z,8.40
2023-02-22T03:37:00.222Z,8.18
2023-02-22T03:39:31.127Z,8.93
2023-02-22T03:42:06.868Z,8.20
2023-02-22T03:44:35.509Z,8.40
2023-02-22T03:47:06.721Z,7.50
2023-02-22T03:49:37.657Z,7.45
2023-02-22T03:52:07.379Z,7.78
2023-02-22T03:54:35.173Z,7.00
2023-02-22T03:57:25.164Z,7.53
2023-02-22T03:59:51.734Z,7.45
2023-02-22T04:02:19.082Z,7.72
2023-02-22T04:04:48.890Z,6.80
2023-02-22T04:07:16.133Z,7.07
2023-02-22T04:09:42.703Z,7.63
2023-02-22T04:12:09.227Z,7.25
2023-02-22T04:14:35.814Z,7.78
2023-02-22T04:17:02.396Z,7.18
2023-02-22T04:19:28.900Z,7.07
2023-02-22T04:21:55.749Z,7.40
2023-02-22T04:24:22.287Z,6.97
2023-02-22T04:26:48.856Z,7.40
2023-02-22T04:29:15.500Z,8.70
2023-02-22T04:31:42.041Z,6.85
2023-02-22T04:34:08.585Z,7.05
2023-02-22T04:36:35.087Z,6.72
2023-02-22T04:39:01.623Z,6.78
2023-02-22T04:41:28.514Z,6.28
2023-02-22T04:43:55.056Z,6.93
2023-02-22T04:46:21.622Z,6.95
2023-02-22T04:48:48.213Z,7.28
2023-02-22T04:51:15.560Z,6.35
2023-02-22T04:53:42.285Z,6.63
2023-02-22T04:56:08.916Z,6.50
2023-02-22T04:58:35.436Z,6.20
2023-02-22T05:01:01.938Z,7.28
2023-02-22T05:03:28.564Z,7.07
2023-02-22T05:05:55.075Z,6.65
2023-02-22T05:08:21.622Z,6.70
2023-02-22T05:10:48.225Z,6.68
2023-02-22T05:13:14.786Z,6.88
2023-02-22T05:15:41.394Z,6.53
2023-02-22T05:18:08.092Z,7.15
2023-02-22T05:20:35.687Z,7.10
2023-02-22T05:23:03.593Z,8.20
2023-02-22T05:25:30.072Z,8.48
2023-02-22T05:28:00.707Z,8.07
2023-02-22T05:30:32.219Z,7.63
2023-02-22T05:32:59.853Z,8.65
2023-02-22T05:35:27.215Z,8.45
2023-02-22T05:37:53.826Z,9.45
2023-02-22T05:40:23.271Z,8.98
2023-02-22T05:42:50.861Z,10.18
2023-02-22T05:45:19.655Z,9.98
2023-02-22T05:47:47.308Z,10.82
2023-02-22T05:50:15.093Z,10.23
2023-02-22T05:52:41.622Z,11.30
2023-02-22T05:55:10.380Z,9.70
2023-02-22T05:57:36.932Z,10.48
2023-02-22T06:00:05.646Z,10.02
2023-02-22T06:02:32.383Z,11.30
2023-02-22T06:04:59.682Z,9.77
2023-02-22T06:07:27.134Z,9.98
2023-02-22T06:09:53.841Z,9.35
2023-02-22T06:12:20.391Z,8.68
2023-02-22T06:14:47.075Z,10.70
2023-02-22T06:17:15.796Z,10.00
2023-02-22T06:19:42.400Z,10.00
2023-02-22T06:22:15.988Z,10.43
2023-02-22T06:24:42.504Z,10.35
2023-02-22T06:27:08.973Z,10.10
2023-02-22T06:29:35.681Z,9.52
2023-02-22T06:32:02.407Z,9.90
2023-02-22T06:34:28.996Z,9.80
2023-02-22T06:36:55.529Z,9.85
2023-02-22T06:39:22.180Z,10.05
2023-02-22T06:41:50.558Z,9.48
2023-02-22T06:44:17.117Z,9.00
2023-02-22T06:46:51.233Z,9.25
2023-02-22T06:49:19.630Z,9.32
2023-02-22T06:51:47.039Z,8.55
2023-02-22T06:54:14.122Z,9.27
2023-02-22T06:56:40.699Z,9.63
2023-02-22T06:59:08.541Z,8.82
2023-02-22T07:01:35.341Z,10.50
2023-02-22T07:04:02.304Z,9.35
2023-02-22T07:06:28.827Z,9.48
2023-02-22T07:08:55.404Z,8.63
2023-02-22T07:11:21.882Z,8.75
2023-02-22T07:13:48.419Z,8.50
2023-02-22T07:16:14.946Z,9.35
2023-02-22T07:18:41.564Z,9.48
2023-02-22T07:21:08.149Z,8.55
2023-02-22T07:23:34.778Z,8.35
2023-02-22T07:26:01.823Z,7.70
2023-02-22T07:28:28.600Z,8.70
2023-02-22T07:30:56.316Z,8.80
2023-02-22T07:33:23.247Z,9.20
2023-02-22T07:35:50.951Z,9.40
2023-02-22T07:38:19.679Z,8.57
2023-02-22T07:40:46.922Z,8.60
2023-02-22T07:43:16.434Z,8.35
2023-02-22T07:45:43.639Z,8.40
2023-02-22T07:48:15.092Z,9.27
2023-02-22T07:50:43.457Z,8.65
2023-02-22T07:53:16.377Z,9.63
2023-02-22T07:55:43.632Z,9.30
2023-02-22T07:58:15.069Z,9.32
2023-02-22T08:00:44.237Z,8.63
2023-02-22T08:03:13.452Z,9.38
2023-02-22T08:08:08.189Z,8.57
2023-02-22T08:10:35.751Z,8.93
2023-02-22T08:13:03.122Z,7.88
2023-02-22T08:15:36.441Z,9.65
2023-02-22T08:18:05.439Z,8.98
2023-02-22T08:20:32.057Z,8.98
2023-02-22T08:22:58.922Z,9.32
2023-02-22T08:25:28.426Z,8.98
2023-02-22T08:28:04.635Z,9.18
2023-02-22T08:30:32.675Z,9.73
2023-02-22T08:32:59.621Z,9.02
2023-02-22T08:35:27.522Z,9.38
2023-02-22T08:37:57.351Z,8.90
2023-02-22T08:40:27.690Z,9.13
2023-02-22T08:42:54.591Z,9.75
2023-02-22T08:45:21.156Z,8.63
2023-02-22T08:47:48.227Z,8.85
2023-02-22T08:50:24.627Z,9.20
2023-02-22T08:52:52.298Z,9.13
2023-02-22T08:55:21.048Z,9.05
2023-02-22T08:57:47.585Z,9.13
2023-02-22T09:00:15.801Z,8.90
2023-02-22T09:02:42.312Z,7.60
2023-02-22T09:05:08.877Z,8.20
2023-02-22T09:07:35.430Z,8.73
2023-02-22T09:10:02.000Z,8.70
2023-02-22T09:12:28.675Z,9.02
2023-02-22T09:14:55.176Z,8.35
2023-02-22T09:17:21.760Z,8.13
2023-02-22T09:19:48.239Z,8.13
2023-02-22T09:22:14.797Z,7.65
2023-02-22T09:24:43.052Z,8.15
2023-02-22T09:27:10.879Z,8.15
2023-02-22T09:29:37.648Z,7.30
2023-02-22T09:32:04.600Z,7.68
2023-02-22T09:34:35.274Z,6.80
2023-02-22T09:37:01.925Z,8.02
2023-02-22T09:39:28.556Z,7.55
2023-02-22T09:42:02.159Z,7.03
2023-02-22T09:44:55.263Z,7.75
2023-02-22T09:47:32.537Z,6.60
2023-02-22T09:50:17.631Z,6.57
2023-02-22T09:53:05.125Z,7.25
2023-02-22T09:58:05.983Z,6.97
2023-02-22T10:00:39.141Z,7.40
2023-02-22T10:03:23.348Z,7.65
2023-02-22T10:06:00.914Z,6.82
2023-02-22T10:08:33.352Z,7.50
2023-02-22T10:11:23.089Z,7.75
2023-02-22T10:14:01.528Z,7.70
2023-02-22T10:16:34.085Z,7.90
2023-02-22T10:19:08.266Z,7.60
2023-02-22T10:21:53.623Z,8.18
2023-02-22T10:24:45.457Z,8.10
2023-02-22T10:27:29.254Z,7.28
2023-02-22T10:30:15.526Z,8.27
2023-02-22T10:33:11.624Z,8.13
2023-02-22T10:35:41.321Z,7.68
2023-02-22T10:38:20.983Z,6.50
2023-02-22T10:41:02.875Z,7.32
2023-02-22T10:43:30.708Z,6.93
2023-02-22T10:46:01.804Z,5.25
2023-02-22T10:48:31.878Z,7.25
2023-02-22T10:51:04.950Z,6.13
2023-02-22T10:53:32.701Z,6.45
2023-02-22T10:56:24.342Z,5.60
2023-02-22T10:59:04.498Z,6.18
2023-02-22T11:01:31.103Z,6.45
2023-02-22T11:04:04.122Z,6.28
2023-02-22T11:06:33.158Z,7.00
2023-02-22T11:09:13.670Z,6.10
2023-02-22T11:11:43.474Z,6.53
2023-02-22T11:14:11.332Z,6.60
2023-02-22T11:16:46.152Z,5.90
2023-02-22T11:19:12.738Z,6.65
2023-02-22T11:21:39.812Z,5.63
2023-02-22T11:24:10.512Z,5.63
2023-02-22T11:26:44.568Z,5.28
2023-02-22T11:29:18.436Z,6.10
2023-02-22T11:31:49.267Z,5.65
2023-02-22T11:34:26.535Z,5.63
2023-02-22T11:36:53.076Z,5.53
2023-02-22T11:39:29.249Z,5.90
2023-02-22T11:41:56.695Z,6.13
2023-02-22T11:44:25.147Z,6.70
2023-02-22T11:46:56.901Z,5.68
2023-02-22T11:49:33.269Z,5.80
2023-02-22T11:52:16.288Z,5.55
2023-02-22T11:54:57.914Z,5.65
2023-02-22T11:57:41.281Z,5.05
2023-02-22T12:00:32.855Z,5.95
2023-02-22T12:03:24.400Z,5.35
2023-02-22T12:06:08.306Z,5.68
2023-02-22T12:08:43.988Z,5.75
2023-02-22T12:11:19.533Z,5.88
2023-02-22T12:14:07.629Z,5.93
2023-02-22T12:16:55.961Z,4.97
2023-02-22T12:19:38.060Z,5.85
2023-02-22T12:22:13.472Z,6.30
2023-02-22T12:24:46.908Z,5.63
2023-02-22T12:27:24.175Z,5.90
2023-02-22T12:29:57.818Z,6.20
2023-02-22T12:32:44.445Z,6.32
2023-02-22T12:35:23.100Z,5.43
2023-02-22T12:38:17.048Z,5.70
2023-02-22T12:40:54.513Z,5.72
2023-02-22T12:43:27.473Z,5.82
2023-02-22T12:46:20.204Z,5.75
2023-02-22T12:49:00.896Z,5.80
2023-02-22T12:51:54.722Z,6.05
2023-02-22T12:54:42.268Z,5.80
2023-02-22T12:57:17.028Z,5.70
2023-02-22T13:02:27.337Z,6.35
2023-02-22T13:04:54.836Z,5.45
2023-02-22T13:07:37.009Z,5.95
2023-02-22T13:10:23.574Z,6.32
2023-02-22T13:13:06.924Z,5.43
2023-02-22T13:16:22.662Z,6.25
2023-02-22T13:19:03.800Z,5.22
2023-02-22T13:21:49.538Z,6.10
2023-02-22T13:24:40.762Z,6.78
2023-02-22T13:27:19.257Z,6.57
2023-02-22T13:29:50.130Z,6.25
2023-02-22T13:32:32.026Z,6.65
2023-02-22T13:35:29.647Z,5.80
2023-02-22T13:38:22.797Z,6.05
2023-02-22T13:43:43.788Z,6.07
2023-02-22T13:46:35.174Z,6.32
2023-02-22T13:49:39.301Z,6.35
2023-02-22T13:52:13.860Z,6.32
2023-02-22T13:54:57.418Z,5.90
2023-02-22T13:57:49.914Z,6.22
2023-02-22T14:00:17.006Z,5.07
2023-02-22T14:03:08.956Z,5.93
2023-02-22T14:05:49.651Z,6.30
2023-02-22T14:08:19.308Z,5.57
2023-02-22T14:10:46.120Z,6.03
2023-02-22T14:13:14.555Z,5.78
2023-02-22T14:16:05.160Z,5.75
2023-02-22T14:18:44.247Z,5.78
2023-02-22T14:21:14.111Z,6.07
2023-02-22T14:23:48.639Z,5.65
2023-02-22T14:26:30.200Z,6.43
2023-02-22T14:29:08.955Z,5.88
2023-02-22T14:31:37.516Z,6.07
2023-02-22T14:34:09.101Z,6.20
2023-02-22T14:36:57.874Z,6.22
2023-02-22T14:39:46.177Z,6.43
2023-02-22T14:42:34.308Z,5.90
2023-02-22T14:45:13.687Z,6.60
2023-02-22T14:47:49.653Z,6.03
2023-02-22T14:50:27.661Z,6.05
2023-02-22T14:53:04.188Z,6.40
2023-02-22T14:55:37.205Z,6.55
2023-02-22T14:58:18.711Z,6.22
2023-02-22T15:00:52.769Z,6.47
2023-02-22T15:03:22.012Z,6.07
2023-02-22T15:05:49.789Z,6.18
2023-02-22T15:08:18.263Z,6.07
2023-02-22T15:10:51.743Z,5.75
2023-02-22T15:13:19.652Z,6.50
2023-02-22T15:16:00.515Z,5.95
2023-02-22T15:18:40.805Z,5.82
2023-02-22T15:21:13.486Z,5.93
2023-02-22T15:23:46.945Z,6.22
2023-02-22T15:26:25.535Z,6.20
2023-02-22T15:28:59.694Z,6.00
2023-02-22T15:31:34.316Z,7.10
2023-02-22T15:34:16.890Z,7.10
2023-02-22T15:36:45.348Z,6.10
2023-02-22T15:39:25.637Z,7.53
2023-02-22T15:42:23.044Z,7.57
2023-02-22T15:44:58.144Z,7.38
2023-02-22T15:47:29.782Z,7.28
2023-02-22T15:50:25.797Z,6.90
2023-02-22T15:53:09.402Z,8.20
2023-02-22T15:55:43.867Z,8.10
2023-02-22T15:58:17.023Z,7.50
2023-02-22T16:01:00.024Z,7.68
2023-02-22T16:03:33.937Z,8.18
2023-02-22T16:06:00.508Z,8.32
2023-02-22T16:08:53.751Z,7.53
2023-02-22T16:11:22.761Z,7.63
2023-02-22T16:13:54.468Z,7.47
2023-02-22T16:16:27.468Z,7.80
2023-02-22T16:19:35.752Z,7.53
2023-02-22T16:22:04.891Z,7.78
2023-02-22T16:24:34.733Z,8.32
2023-02-22T16:27:06.568Z,7.72
2023-02-22T16:29:33.636Z,7.80
2023-02-22T16:32:01.869Z,8.35
2023-02-22T16:34:28.460Z,8.48
2023-02-22T16:36:55.876Z,7.80
2023-02-22T16:39:31.143Z,7.95
2023-02-22T16:42:00.329Z,8.18
2023-02-22T16:44:27.853Z,8.45
2023-02-22T16:46:58.785Z,7.85
2023-02-22T16:49:25.952Z,8.60
2023-02-22T16:51:59.540Z,7.97
2023-02-22T16:54:29.733Z,7.97
2023-02-22T16:57:00.349Z,8.00
2023-02-22T16:59:27.086Z,8.02
2023-02-22T17:01:53.828Z,7.93
2023-02-22T17:04:24.302Z,8.88
2023-02-22T17:06:50.942Z,8.50
2023-02-22T17:09:20.120Z,9.32
2023-02-22T17:11:50.399Z,8.65
2023-02-22T17:14:23.080Z,7.72
2023-02-22T17:16:51.028Z,9.43
2023-02-22T17:19:21.214Z,8.85
2023-02-22T17:21:49.614Z,9.23
2023-02-22T17:24:25.072Z,9.15
2023-02-22T17:26:57.377Z,8.60
2023-02-22T17:29:24.375Z,8.55
2023-02-22T17:31:52.886Z,9.93
2023-02-22T17:34:19.508Z,9.48
2023-02-22T17:36:46.610Z,9.30
2023-02-22T17:39:13.542Z,8.93
2023-02-22T17:41:40.947Z,9.57
2023-02-22T17:44:07.997Z,8.98
2023-02-22T17:46:36.681Z,9.00
2023-02-22T17:49:03.512Z,8.57
2023-02-22T17:51:30.305Z,9.15
2023-02-22T17:53:57.149Z,9.93
2023-02-22T17:56:23.798Z,10.15
2023-02-22T17:58:54.233Z,8.60
2023-02-22T18:01:32.474Z,9.32
2023-02-22T18:04:02.281Z,10.38
2023-02-22T18:06:30.659Z,10.95
2023-02-22T18:08:58.884Z,11.45
2023-02-22T18:11:27.547Z,11.35
2023-02-22T18:13:56.334Z,10.93
2023-02-22T18:16:25.723Z,10.82
2023-02-22T18:18:53.795Z,10.02
2023-02-22T18:21:20.474Z,11.38
2023-02-22T18:23:47.089Z,12.57
2023-02-22T18:26:21.982Z,10.27
2023-02-22T18:28:49.124Z,10.90
2023-02-22T18:31:19.045Z,11.05
2023-02-22T18:33:48.627Z,11.43
2023-02-22T18:36:16.378Z,12.10
2023-02-22T18:38:43.974Z,12.95
2023-02-22T18:41:15.885Z,14.85
2023-02-22T18:43:43.197Z,12.65
2023-02-22T18:46:16.482Z,13.10
2023-02-22T18:48:44.504Z,12.95
2023-02-22T18:51:13.527Z,11.68
2023-02-22T18:53:41.541Z,13.73
2023-02-22T18:56:14.172Z,12.88
2023-02-22T18:58:43.242Z,12.75
2023-02-22T19:01:15.786Z,12.75
2023-02-22T19:03:42.879Z,13.73
2023-02-22T19:06:10.053Z,12.45
2023-02-22T19:08:41.110Z,12.88
2023-02-22T19:11:17.914Z,12.93
2023-02-22T19:13:46.527Z,12.00
2023-02-22T19:16:14.093Z,12.70
2023-02-22T19:18:40.679Z,13.75
2023-02-22T19:21:10.134Z,11.88
2023-02-22T19:23:39.545Z,12.05
2023-02-22T19:26:09.308Z,13.25
2023-02-22T19:28:36.082Z,13.23
2023-02-22T19:31:16.438Z,12.93
2023-02-22T19:33:43.808Z,12.50
2023-02-22T19:36:11.968Z,12.55
2023-02-22T19:38:38.883Z,12.30
2023-02-22T19:41:18.305Z,11.07
2023-02-22T19:43:50.425Z,12.07
2023-02-22T19:46:17.996Z,12.95
2023-02-22T19:48:45.567Z,13.15
2023-02-22T19:51:13.915Z,12.05
2023-02-22T19:53:41.568Z,13.45
2023-02-22T19:56:10.698Z,13.23
2023-02-22T19:58:38.453Z,13.95
2023-02-22T20:01:14.827Z,13.07
2023-02-22T20:03:42.356Z,13.63
2023-02-22T20:06:12.430Z,14.20
2023-02-22T20:08:42.324Z,13.25
2023-02-22T20:11:10.621Z,14.05
2023-02-22T20:13:41.343Z,13.73
2023-02-22T20:16:10.111Z,14.57
2023-02-22T20:18:37.067Z,14.25
2023-02-22T20:21:12.218Z,12.85
2023-02-22T20:23:44.344Z,14.40
2023-02-22T20:26:20.421Z,14.57
2023-02-22T20:28:47.126Z,14.48
2023-02-22T20:31:14.539Z,15.05
2023-02-22T20:33:43.494Z,15.15
2023-02-22T20:36:11.199Z,13.68
2023-02-22T20:38:38.685Z,11.85
2023-02-22T20:41:09.884Z,13.65
2023-02-22T20:43:36.417Z,14.43
2023-02-22T20:46:05.328Z,14.90
2023-02-22T20:48:32.760Z,14.90
2023-02-22T20:51:14.339Z,15.45
2023-02-22T20:53:43.588Z,14.77
2023-02-22T20:56:22.296Z,14.50
2023-02-22T20:58:49.969Z,13.98
2023-02-22T21:01:19.338Z,15.57
2023-02-22T21:03:47.014Z,14.70
2023-02-22T21:06:18.096Z,15.80
2023-02-22T21:08:49.415Z,15.07
2023-02-22T21:11:17.993Z,15.15
2023-02-22T21:13:44.688Z,16.08
2023-02-22T21:16:18.221Z,15.38
2023-02-22T21:18:44.836Z,15.43
2023-02-22T21:21:12.495Z,15.13
2023-02-22T21:23:40.730Z,14.05
2023-02-22T21:26:12.944Z,15.57
2023-02-22T21:28:50.863Z,15.75
2023-02-22T21:31:19.277Z,15.25
2023-02-22T21:33:52.834Z,15.73
2023-02-22T21:36:20.790Z,17.00
2023-02-22T21:38:53.388Z,15.10
2023-02-22T21:41:21.546Z,16.10
2023-02-22T21:43:51.865Z,16.27
2023-02-22T21:46:18.732Z,16.38
2023-02-22T21:48:48.862Z,16.10
2023-02-22T21:51:25.439Z,15.48
2023-02-22T21:53:54.840Z,15.60
2023-02-22T21:56:27.311Z,17.05
2023-02-22T21:58:59.554Z,16.55
2023-02-22T22:01:31.525Z,16.10
2023-02-22T22:04:00.166Z,16.60
2023-02-22T22:06:28.462Z,16.08
2023-02-22T22:08:56.552Z,16.25
2023-02-22T22:11:25.032Z,16.30
2023-02-22T22:13:53.627Z,15.75
2023-02-22T22:16:20.560Z,15.82
2023-02-22T22:18:47.337Z,15.02
2023-02-22T22:21:24.306Z,17.38
2023-02-22T22:23:54.339Z,16.38
2023-02-22T22:26:21.859Z,17.05
2023-02-22T22:28:51.933Z,16.58
2023-02-22T22:31:20.710Z,16.60
2023-02-22T22:33:47.714Z,16.90
2023-02-22T22:36:16.349Z,16.52
2023-02-22T22:38:43.269Z,16.95
2023-02-22T22:41:13.268Z,15.82
2023-02-22T22:43:41.563Z,17.73
2023-02-22T22:46:08.848Z,16.85
2023-02-22T22:48:39.033Z,17.48
2023-02-22T22:51:09.865Z,17.15
2023-02-22T22:53:42.861Z,15.48
2023-02-22T22:56:16.442Z,17.70
2023-02-22T22:58:48.002Z,16.88
2023-02-22T23:01:20.050Z,16.83
2023-02-22T23:03:53.907Z,17.20
2023-02-22T23:06:25.840Z,18.00
2023-02-22T23:09:10.373Z,16.75
2023-02-22T23:11:44.559Z,16.20
2023-02-22T23:14:14.897Z,15.35
2023-02-22T23:16:42.664Z,15.77
2023-02-22T23:19:09.383Z,17.73
2023-02-22T23:21:36.687Z,16.55
2023-02-22T23:24:07.594Z,17.92
2023-02-22T23:26:34.650Z,16.15
2023-02-22T23:29:01.520Z,17.80
2023-02-22T23:31:29.022Z,16.20
2023-02-22T23:33:58.558Z,18.10
2023-02-22T23:36:26.430Z,16.00
2023-02-22T23:38:54.389Z,16.45
2023-02-22T23:41:24.948Z,17.23
2023-02-22T23:43:51.752Z,17.00
2023-02-22T23:46:18.989Z,16.02
2023-02-22T23:48:51.195Z,17.55
2023-02-22T23:51:21.308Z,15.32
2023-02-22T23:53:49.086Z,18.02
2023-02-22T23:56:21.896Z,14.20
2023-02-22T23:58:52.423Z,17.98
